createdAt,value
2022-12-23T00:03:09.327Z,6.05
2022-12-23T00:08:11.896Z,6.01
2022-12-23T00:13:33.343Z,5.99
2022-12-23T00:18:36.468Z,5.94
2022-12-23T00:23:40.849Z,5.92
2022-12-23T00:28:44.829Z,5.91
2022-12-23T00:33:49.053Z,5.90
2022-12-23T00:39:09.660Z,5.90
2022-12-23T00:44:13.459Z,5.90
2022-12-23T00:49:36.149Z,5.91
2022-12-23T00:54:38.737Z,5.90
2022-12-23T00:59:42.515Z,5.88
2022-12-23T01:05:02.791Z,5.88
2022-12-23T01:10:05.951Z,5.91
2022-12-23T01:15:10.771Z,5.90
2022-12-23T01:20:13.923Z,5.88
2022-12-23T01:25:16.499Z,5.89
2022-12-23T01:30:20.595Z,5.90
2022-12-23T01:35:23.075Z,5.89
2022-12-23T01:40:25.571Z,5.86
2022-12-23T01:45:31.418Z,5.80
2022-12-23T01:50:37.750Z,5.75
2022-12-23T01:55:45.975Z,5.71
2022-12-23T02:01:07.710Z,5.69
2022-12-23T02:06:30.218Z,5.67
2022-12-23T02:11:50.150Z,5.69
2022-12-23T02:17:01.146Z,5.68
2022-12-23T02:22:24.036Z,5.70
2022-12-23T02:27:31.416Z,5.73
2022-12-23T02:32:50.852Z,5.74
2022-12-23T02:37:56.924Z,5.76
2022-12-23T02:43:03.335Z,5.75
2022-12-23T02:48:11.485Z,5.77
2022-12-23T02:53:19.871Z,5.78
2022-12-23T02:58:25.959Z,5.79
2022-12-23T03:03:30.295Z,5.83
2022-12-23T03:08:40.388Z,5.89
2022-12-23T03:13:56.416Z,5.90
2022-12-23T03:19:11.263Z,5.88
2022-12-23T03:24:23.428Z,5.86
2022-12-23T03:29:31.667Z,5.81
2022-12-23T03:34:40.213Z,5.83
2022-12-23T03:39:47.774Z,5.83
2022-12-23T03:45:28.035Z,5.80
2022-12-23T03:50:20.350Z,5.83
2022-12-23T03:55:28.595Z,5.82
2022-12-23T04:00:39.735Z,5.83
2022-12-23T04:05:48.779Z,5.81
2022-12-23T04:10:51.934Z,5.82
2022-12-23T04:15:55.003Z,5.81
2022-12-23T04:20:58.886Z,5.87
2022-12-23T04:26:01.373Z,5.90
2022-12-23T04:31:03.976Z,5.94
2022-12-23T04:36:08.130Z,5.95
2022-12-23T04:41:10.584Z,5.98
2022-12-23T04:46:13.128Z,6.00
2022-12-23T04:51:16.972Z,5.99
2022-12-23T04:56:19.485Z,6.01
2022-12-23T05:01:22.092Z,5.99
2022-12-23T05:06:25.975Z,5.99
2022-12-23T05:11:28.550Z,5.98
2022-12-23T05:16:32.021Z,5.99
2022-12-23T05:21:35.942Z,5.97
2022-12-23T05:26:38.454Z,5.95
2022-12-23T05:31:40.967Z,5.95
2022-12-23T05:36:44.782Z,5.95
2022-12-23T05:41:47.277Z,5.97
2022-12-23T05:46:49.809Z,5.98
2022-12-23T05:51:53.637Z,5.97
2022-12-23T05:56:56.208Z,5.99
2022-12-23T06:01:58.878Z,5.99
2022-12-23T06:07:02.818Z,6.00
2022-12-23T06:12:05.747Z,6.01
2022-12-23T06:17:08.307Z,5.99
2022-12-23T06:22:12.127Z,5.95
2022-12-23T06:27:14.882Z,5.93
2022-12-23T06:32:17.495Z,5.93
2022-12-23T06:37:21.848Z,5.94
2022-12-23T06:42:24.324Z,5.91
2022-12-23T06:47:26.785Z,5.90
2022-12-23T06:52:30.603Z,5.87
2022-12-23T06:57:33.081Z,5.90
2022-12-23T07:02:35.810Z,5.89
2022-12-23T07:07:39.683Z,5.90
2022-12-23T07:12:46.095Z,5.91
2022-12-23T07:17:52.913Z,5.91
2022-12-23T07:22:57.019Z,5.91
2022-12-23T07:27:59.671Z,5.88
2022-12-23T07:33:02.136Z,5.89
2022-12-23T07:38:06.133Z,5.91
2022-12-23T07:43:08.626Z,5.91
2022-12-23T07:48:11.090Z,5.90
2022-12-23T07:53:14.895Z,5.87
2022-12-23T07:58:17.390Z,5.88
2022-12-23T08:03:19.974Z,5.88
2022-12-23T08:08:23.868Z,5.86
2022-12-23T08:13:26.363Z,5.88
2022-12-23T08:18:31.206Z,5.90
2022-12-23T08:23:35.487Z,5.93
2022-12-23T08:28:39.458Z,5.97
2022-12-23T08:33:44.250Z,6.00
2022-12-23T08:38:48.082Z,6.04
2022-12-23T08:43:50.762Z,6.08
2022-12-23T08:48:53.807Z,6.13
2022-12-23T08:54:01.133Z,6.18
2022-12-23T08:59:04.814Z,6.19
2022-12-23T09:04:08.457Z,6.21
2022-12-23T09:09:14.490Z,6.23
2022-12-23T09:14:17.056Z,6.28
2022-12-23T09:19:19.742Z,6.31
2022-12-23T09:24:23.582Z,6.32
2022-12-23T09:29:26.092Z,6.36
2022-12-23T09:34:28.583Z,6.40
2022-12-23T09:39:32.863Z,6.43
2022-12-23T09:45:00.281Z,6.48
2022-12-23T09:50:06.501Z,6.53
2022-12-23T09:55:12.779Z,6.60
2022-12-23T10:00:17.822Z,6.66
2022-12-23T10:05:31.194Z,6.71
2022-12-23T10:10:40.612Z,6.70
2022-12-23T10:15:49.047Z,6.75
2022-12-23T10:20:54.770Z,6.79
2022-12-23T10:25:58.652Z,6.81
2022-12-23T10:31:38.130Z,6.84
2022-12-23T10:36:37.030Z,6.84
2022-12-23T10:41:49.893Z,6.82
2022-12-23T10:47:01.030Z,6.74
2022-12-23T10:52:11.500Z,6.70
2022-12-23T10:57:18.193Z,6.67
2022-12-23T11:02:45.204Z,6.64
2022-12-23T11:07:47.955Z,6.67
2022-12-23T11:12:54.042Z,6.71
2022-12-23T11:18:02.158Z,6.72
2022-12-23T11:23:07.114Z,6.78
2022-12-23T11:28:16.943Z,6.87
2022-12-23T11:33:25.441Z,6.92
2022-12-23T11:38:28.024Z,6.91
2022-12-23T11:43:33.947Z,6.92
2022-12-23T11:48:36.437Z,6.92
2022-12-23T11:53:43.935Z,6.95
2022-12-23T11:58:52.387Z,6.99
2022-12-23T12:03:59.973Z,7.01
2022-12-23T12:09:05.474Z,7.02
2022-12-23T12:14:09.733Z,7.07
2022-12-23T12:19:16.673Z,7.10
2022-12-23T12:24:25.551Z,7.13
2022-12-23T12:29:35.476Z,7.15
2022-12-23T12:34:44.634Z,7.20
2022-12-23T12:39:54.259Z,7.22
2022-12-23T12:45:03.710Z,7.22
2022-12-23T12:50:14.670Z,7.23
2022-12-23T12:55:23.991Z,7.22
2022-12-23T13:00:28.262Z,7.21
2022-12-23T13:05:53.299Z,7.24
2022-12-23T13:11:03.138Z,7.23
2022-12-23T13:16:17.944Z,7.22
2022-12-23T13:21:25.499Z,7.22
2022-12-23T13:26:37.068Z,7.25
2022-12-23T13:31:49.603Z,7.26
2022-12-23T13:37:02.278Z,7.27
2022-12-23T13:42:09.059Z,7.27
2022-12-23T13:47:22.932Z,7.30
2022-12-23T13:52:35.936Z,7.31
2022-12-23T13:57:50.374Z,7.33
2022-12-23T14:03:07.314Z,7.33
2022-12-23T14:08:22.936Z,7.32
2022-12-23T14:13:29.989Z,7.32
2022-12-23T14:18:57.224Z,7.33
2022-12-23T14:24:27.633Z,7.29
2022-12-23T14:29:45.216Z,7.24
2022-12-23T14:35:17.205Z,7.25
2022-12-23T14:40:49.350Z,7.19
2022-12-23T14:45:53.404Z,7.12
2022-12-23T14:51:01.324Z,7.03
2022-12-23T14:56:23.721Z,6.96
2022-12-23T15:01:32.516Z,6.83
2022-12-23T15:06:40.393Z,6.72
2022-12-23T15:11:43.562Z,6.58
2022-12-23T15:16:46.486Z,6.47
2022-12-23T15:22:00.319Z,6.40
2022-12-23T15:27:26.685Z,6.32
2022-12-23T15:32:30.553Z,6.23
2022-12-23T15:37:35.390Z,6.11
2022-12-23T15:42:38.443Z,6.04
2022-12-23T15:47:42.909Z,5.92
2022-12-23T15:52:50.083Z,5.87
2022-12-23T15:57:53.321Z,5.81
2022-12-23T16:03:01.811Z,5.74
2022-12-23T16:08:12.379Z,5.64
2022-12-23T16:13:19.043Z,5.58
2022-12-23T16:18:23.861Z,5.54
2022-12-23T16:23:31.702Z,5.52
2022-12-23T16:28:39.541Z,5.51
2022-12-23T16:33:44.313Z,5.47
2022-12-23T16:38:50.651Z,5.43
2022-12-23T16:43:53.303Z,5.50
2022-12-23T16:48:58.474Z,5.60
2022-12-23T16:54:02.844Z,5.64
2022-12-23T16:59:05.967Z,5.68
2022-12-23T17:04:08.977Z,5.73
2022-12-23T17:09:13.568Z,5.80
2022-12-23T17:14:18.792Z,5.85
2022-12-23T17:19:27.972Z,5.86
2022-12-23T17:24:33.514Z,5.83
2022-12-23T17:29:36.021Z,5.97
2022-12-23T17:34:38.565Z,5.95
2022-12-23T17:39:43.191Z,5.79
2022-12-23T17:44:46.148Z,5.64
2022-12-23T17:49:49.612Z,5.56
2022-12-23T17:54:53.431Z,5.59
2022-12-23T17:59:56.778Z,5.66
2022-12-23T18:04:59.940Z,5.59
2022-12-23T18:10:03.975Z,5.55
2022-12-23T18:15:15.191Z,5.51
2022-12-23T18:20:19.631Z,5.39
2022-12-23T18:25:26.027Z,5.32
2022-12-23T18:30:28.681Z,5.34
2022-12-23T18:35:33.788Z,5.35
2022-12-23T18:40:37.744Z,5.21
2022-12-23T18:45:42.416Z,5.07
2022-12-23T18:50:46.429Z,5.08
2022-12-23T18:55:50.709Z,5.02
2022-12-23T19:00:54.175Z,4.90
2022-12-23T19:05:58.148Z,4.83
2022-12-23T19:11:02.782Z,4.57
2022-12-23T19:16:06.020Z,4.36
2022-12-23T19:21:09.181Z,4.23
2022-12-23T19:26:14.943Z,4.09
2022-12-23T19:31:18.284Z,4.02
2022-12-23T19:36:23.536Z,3.92
2022-12-23T19:41:27.432Z,3.79
2022-12-23T19:46:30.151Z,3.64
2022-12-23T19:51:32.785Z,3.70
2022-12-23T19:56:36.631Z,3.59
2022-12-23T20:01:39.226Z,3.54
2022-12-23T20:06:42.748Z,3.52
2022-12-23T20:11:48.275Z,3.40
2022-12-23T20:16:51.442Z,3.23
2022-12-23T20:21:53.981Z,3.23
2022-12-23T20:26:59.153Z,3.22
2022-12-23T20:32:01.810Z,3.12
2022-12-23T20:37:04.565Z,3.00
2022-12-23T20:42:08.508Z,2.96
2022-12-23T20:47:11.712Z,2.86
2022-12-23T20:52:14.184Z,2.79
2022-12-23T20:57:18.376Z,2.74
2022-12-23T21:02:21.314Z,2.65
2022-12-23T21:07:26.117Z,2.58
2022-12-23T21:12:30.228Z,2.54
2022-12-23T21:17:33.683Z,2.50
2022-12-23T21:22:36.176Z,2.41
2022-12-23T21:27:41.506Z,2.29
2022-12-23T21:32:43.999Z,2.20
2022-12-23T21:37:46.497Z,2.11
2022-12-23T21:42:50.330Z,2.00
2022-12-23T21:47:52.841Z,1.93
2022-12-23T21:52:55.333Z,1.94
2022-12-23T21:57:59.139Z,1.92
2022-12-23T22:03:01.872Z,1.90
2022-12-23T22:08:04.479Z,1.99
2022-12-23T22:13:08.300Z,2.02
2022-12-23T22:18:10.987Z,2.07
2022-12-23T22:23:13.483Z,2.11
2022-12-23T22:28:17.299Z,2.13
2022-12-23T22:33:21.059Z,2.15
2022-12-23T22:38:23.531Z,2.18
2022-12-23T22:43:27.417Z,2.21
2022-12-23T22:48:31.334Z,2.24
2022-12-23T22:53:34.929Z,2.28
2022-12-23T22:58:39.001Z,2.25
2022-12-23T23:03:41.482Z,2.29
2022-12-23T23:08:43.997Z,2.28
2022-12-23T23:13:47.842Z,2.26
2022-12-23T23:18:50.405Z,2.27
2022-12-23T23:23:53.086Z,2.27
2022-12-23T23:28:57.317Z,2.24
2022-12-23T23:33:59.841Z,2.22
2022-12-23T23:39:02.351Z,2.21
2022-12-23T23:44:06.543Z,2.17
2022-12-23T23:49:09.084Z,2.12
2022-12-23T23:54:11.681Z,2.07
2022-12-23T23:59:15.532Z,2.01
